TimeAKST,TemperatureF,Dew PointF,Humidity,Sea Level PressureIn,VisibilityMPH,Wind Direction,Wind SpeedMPH,Gust SpeedMPH,PrecipitationIn,Events,Conditions,WindDirDegrees,DateUTC
12:53 AM,9.0,-5.1,53,29.34,4.0,NNE,19.6,-,N/A,,Partly Cloudy,30,2012-12-09 09:53:00
1:53 AM,9.0,-5.1,53,29.34,10.0,NE,19.6,-,N/A,,Scattered Clouds,40,2012-12-09 10:53:00
2:53 AM,10.0,-5.1,51,29.33,10.0,NE,21.9,28.8,N/A,,Scattered Clouds,40,2012-12-09 11:53:00
3:53 AM,10.9,-5.1,49,29.34,10.0,NE,13.8,24.2,N/A,Snow,Low Drifting Snow,50,2012-12-09 12:53:00
4:53 AM,10.9,-5.1,49,29.34,10.0,East,4.6,-,N/A,,Scattered Clouds,80,2012-12-09 13:53:00
5:53 AM,10.0,-5.1,51,29.33,10.0,ENE,11.5,-,N/A,,Scattered Clouds,70,2012-12-09 14:53:00
6:53 AM,9.0,-5.1,53,29.34,10.0,NE,15.0,19.6,N/A,,Mostly Cloudy,40,2012-12-09 15:53:00
7:53 AM,8.1,-5.1,55,29.35,10.0,NE,11.5,16.1,N/A,,Mostly Cloudy,40,2012-12-09 16:53:00
8:53 AM,8.1,-5.1,55,29.36,10.0,NNE,12.7,-,N/A,,Mostly Cloudy,30,2012-12-09 17:53:00
9:53 AM,9.0,-5.1,53,29.36,10.0,NNE,15.0,-,N/A,,Mostly Cloudy,20,2012-12-09 18:53:00
10:53 AM,10.0,-4.0,53,29.37,10.0,NNE,13.8,-,N/A,,Mostly Cloudy,20,2012-12-09 19:53:00
11:53 AM,10.0,-4.0,53,29.39,10.0,North,8.1,-,N/A,,Mostly Cloudy,350,2012-12-09 20:53:00
12:53 PM,10.0,-2.9,56,29.40,10.0,NNW,4.6,-,N/A,,Mostly Cloudy,340,2012-12-09 21:53:00
1:53 PM,9.0,-0.0,67,29.41,10.0,Calm,Calm,-,N/A,,Mostly Cloudy,0,2012-12-09 22:53:00
2:53 PM,12.9,1.0,59,29.41,10.0,North,5.8,-,N/A,,Overcast,10,2012-12-09 23:53:00
3:53 PM,12.9,1.9,62,29.42,10.0,NNW,5.8,-,N/A,,Overcast,330,2012-12-10 00:53:00
4:53 PM,12.9,1.9,62,29.42,10.0,NNW,5.8,-,N/A,,Overcast,330,2012-12-10 01:53:00
5:53 PM,14.0,3.9,64,29.44,10.0,Calm,Calm,-,N/A,,Overcast,0,2012-12-10 02:53:00
6:53 PM,12.9,3.9,67,29.45,9.0,NNW,4.6,-,0.00,Snow,Light Snow,340,2012-12-10 03:53:00
7:53 PM,14.0,5.0,67,29.46,10.0,Calm,Calm,-,0.00,,Overcast,0,2012-12-10 04:53:00
8:53 PM,12.9,5.0,71,29.47,10.0,Calm,Calm,-,N/A,,Overcast,0,2012-12-10 05:53:00
9:53 PM,14.0,3.9,64,29.46,10.0,NNW,5.8,-,N/A,,Overcast,340,2012-12-10 06:53:00
10:53 PM,12.9,5.0,71,29.47,10.0,WNW,3.5,-,N/A,,Overcast,290,2012-12-10 07:53:00
11:53 PM,12.9,6.1,74,29.49,9.0,Calm,Calm,-,0.00,Snow,Light Snow,0,2012-12-10 08:53:00